ADDS METAR Data INFO
IDs: Format: Raw Decoded Include TAF

Data at: 1555 UTC 12 Dec 2017

K1A6 121535Z AUTO 29011G18KT 7SM DZ OVC021 03/01 A2991 RMK AO2 T00320005
K1A6 121515Z AUTO 31013G22KT 10SM -RA OVC023 04/00 A2990 RMK AO2 T00400001
K1A6 121455Z AUTO 32008G20KT 10SM -RA OVC025 04/00 A2989 RMK AO2 T00410000
K1A6 121435Z AUTO 32010G19KT 10SM -DZ OVC025 05/00 A2988 RMK AO2 T00451001
K1A6 121415Z AUTO 32013G20KT 10SM OVC027 05/00 A2988 RMK AO2 T00471005
K1A6 121355Z AUTO 30011G18KT 10SM OVC029 05/00 A2987 RMK AO2 T00501002
K1A6 121335Z AUTO 30006G14KT 10SM OVC025 05/00 A2987 RMK AO2 T00480001
K1A6 121315Z AUTO 30006KT 250V320 10SM OVC025 05/01 A2987 RMK AO2 T00460005
K1A6 121255Z AUTO 00000KT 10SM BKN025 OVC030 05/01 A2986 RMK AO2 T00450010
K1A6 121235Z AUTO 31008KT 10SM -DZ OVC029 05/01 A2986 RMK AO2 T00480005
K1A6 121215Z AUTO 30004KT 10SM OVC029 05/00 A2985 RMK AO2 T00521002
K1A6 121155Z AUTO 32008KT 10SM OVC031 05/00 A2985 RMK AO2 T00531001 10102 20053
K1A6 121135Z AUTO 29003KT 10SM BKN033 OVC040 06/M01 A2985 RMK AO2 T00551007
K1A6 121115Z AUTO 31007KT 10SM BKN033 OVC042 06/M01 A2984 RMK AO2 T00561009
K1A6 121055Z AUTO 33007G14KT 10SM OVC035 06/M01 A2985 RMK AO2 T00571010
K1A6 121035Z AUTO 29007KT 10SM OVC037 06/M01 A2984 RMK AO2 T00601012
K1A6 121015Z AUTO 34009G17KT 10SM OVC041 06/M01 A2983 RMK AO2 T00621012
K1A6 120955Z AUTO 30008G18KT 10SM OVC041 07/M02 A2984 RMK AO2 T00651016
K1A6 120935Z AUTO 30010G17KT 270V330 10SM OVC045 07/M02 A2983 RMK AO2 T00671016
K1A6 120915Z AUTO 32010G18KT 10SM BKN047 07/M02 A2983 RMK AO2 T00691017
K1A6 120855Z AUTO 29007G14KT 10SM SCT049 07/M02 A2983 RMK AO2 T00721020
K1A6 120835Z AUTO 31007G18KT 10SM CLR 08/M02 A2984 RMK AO2 T00751022
K1A6 120815Z AUTO 29008G17KT 10SM CLR 08/M02 A2984 RMK AO2 T00791025
K1A6 120755Z AUTO 31008G16KT 10SM CLR 08/M02 A2984 RMK AO2 T00801023
K1A6 120735Z AUTO 31010G18KT 10SM SCT055 09/M02 A2983 RMK AO2 T00851025
K1A6 120715Z AUTO 29012G22KT 10SM BKN055 09/M02 A2983 RMK AO2 T00901024
K1A6 120655Z AUTO 29007G17KT 250V310 10SM CLR 09/M01 A2982 RMK AO2 T00931015
K1A6 120635Z AUTO 28007G15KT 10SM CLR 10/M01 A2981 RMK AO2 T01001007
K1A6 120615Z AUTO 27006KT 10SM CLR 10/M01 A2980 RMK AO2 T00971008
K1A6 120555Z AUTO 00000KT 10SM CLR 06/00 A2981 RMK AO2 T00630000 10102 20052 401151055
K1A6 120535Z AUTO 02003KT 10SM CLR 06/00 A2982 RMK AO2 T00550001
K1A6 120515Z AUTO 19004KT 10SM CLR 09/00 A2982 RMK AO2 T00850000
K1A6 120455Z AUTO 19003KT 10SM CLR 09/00 A2982 RMK AO2 T00890000
K1A6 120435Z AUTO 19004KT 10SM CLR 09/00 A2983 RMK AO2 T00900000
K1A6 120415Z AUTO 19006KT 10SM CLR 09/00 A2983 RMK AO2 T00900000
K1A6 120355Z AUTO 00000KT 10SM CLR 06/00 A2984 RMK AO2 T00580000
K1A6 120335Z AUTO 22005KT 10SM CLR 07/00 A2984 RMK AO2 T00680000
K1A6 120315Z AUTO 22005KT 10SM CLR 06/00 A2985 RMK AO2 T00581002
K1A6 120255Z AUTO 21006KT 10SM CLR 09/00 A2985 RMK AO2 T00870000
K1A6 120235Z AUTO 19009G15KT 10SM CLR 09/00 A2985 RMK AO2 T00910000
K1A6 120215Z AUTO 20010G17KT 10SM CLR 10/00 A2985 RMK AO2 T00961001
K1A6 120155Z AUTO 20004G19KT 10SM CLR 10/00 A2986 RMK AO2 T00991002
K1A6 120135Z AUTO 22009G16KT 10SM CLR 10/00 A2986 RMK AO2 T00951002
K1A6 120115Z AUTO 21007G18KT 10SM CLR 10/00 A2985 RMK AO2 T00981003
K1A6 120055Z AUTO 19014G18KT 10SM CLR 10/00 A2985 RMK AO2 T00981005
K1A6 120035Z AUTO 22007G14KT 160V250 10SM CLR 10/00 A2987 RMK AO2 T00971005
K1A6 120015Z AUTO 00000KT 10SM CLR 09/M01 A2987 RMK AO2 T00941007
K1A6 112355Z AUTO 17007KT 10SM CLR 08/M01 A2987 RMK AO2 T00801008 10115 20070
K1A6 112335Z AUTO 20004KT 10SM CLR 09/M01 A2987 RMK AO2 T00931010
K1A6 112315Z AUTO 00000KT 10SM CLR 07/M01 A2988 RMK AO2 T00721013
K1A6 112255Z AUTO 17003KT 10SM CLR 09/M01 A2989 RMK AO2 T00911012
K1A6 112235Z AUTO 00000KT 10SM CLR 09/M01 A2990 RMK AO2 T00901013
K1A6 112215Z AUTO 00000KT 10SM CLR 10/M01 A2990 RMK AO2 T00961014
K1A6 112155Z AUTO 18003KT 10SM CLR 10/M01 A2992 RMK AO2 T00981014
K1A6 112135Z AUTO 21004KT 10SM CLR 10/M02 A2992 RMK AO2 T01021016
K1A6 112115Z AUTO 20006KT 160V230 10SM CLR 11/M02 A2992 RMK AO2 T01051016
K1A6 112055Z AUTO 17010KT 150V230 10SM CLR 11/M01 A2993 RMK AO2 T01101014
K1A6 112035Z AUTO 17006KT 10SM CLR 11/M01 A2994 RMK AO2 T01121013
K1A6 112015Z AUTO 15006KT 10SM CLR 11/M01 A2995 RMK AO2 T01121015
K1A6 111955Z AUTO 19011G15KT 10SM CLR 11/M01 A2997 RMK AO2 T01131015
K1A6 111935Z AUTO 18007KT 140V200 10SM CLR 11/M02 A2997 RMK AO2 T01101016
K1A6 111915Z AUTO 18011G14KT 10SM CLR 11/M01 A2997 RMK AO2 T01071015
K1A6 111855Z AUTO 17011G14KT 10SM CLR 11/M01 A2999 RMK AO2 T01061015
K1A6 111835Z AUTO 17007KT 10SM CLR 10/M01 A3001 RMK AO2 T01001014
K1A6 111815Z AUTO 17006KT 10SM CLR 10/M01 A3003 RMK AO2 T00951015
K1A6 111755Z AUTO 17007G14KT 10SM CLR 09/M02 A3003 RMK AO2 T00891016 10089 21055
K1A6 111735Z AUTO 17008G15KT 10SM CLR 08/M02 A3006 RMK AO2 T00841018
K1A6 111715Z AUTO 17008KT 10SM CLR 08/M02 A3007 RMK AO2 T00801020
K1A6 111655Z AUTO 17008KT 10SM CLR 08/M02 A3008 RMK AO2 T00751021
K1A6 111635Z AUTO 17008KT 10SM CLR 07/M02 A3009 RMK AO2 T00671023
K1A6 111615Z AUTO 15006KT 10SM CLR 06/M02 A3010 RMK AO2 T00611025
K1A6 111555Z AUTO 15005KT 10SM CLR 06/M03 A3011 RMK AO2 T00561027
K1A6 111535Z AUTO 13003KT 10SM CLR 05/M03 A3012 RMK AO2 T00451030
K1A6 111515Z AUTO 00000KT 10SM CLR 03/M03 A3013 RMK AO2 T00281031
K1A6 111455Z AUTO 00000KT 10SM CLR 01/M03 A3012 RMK AO2 T00121029
K1A6 111435Z AUTO 00000KT 10SM CLR 00/M04 A3014 RMK AO2 T10031036
K1A6 111415Z AUTO 00000KT 10SM CLR M02/M04 A3014 RMK AO2 T10191038
K1A6 111355Z AUTO 00000KT 10SM CLR M03/M04 A3014 RMK AO2 T10281043
K1A6 111335Z AUTO 00000KT 10SM CLR M04/M05 A3014 RMK AO2 T10391051
K1A6 111315Z AUTO 00000KT 10SM CLR M05/M06 A3014 RMK AO2 T10481056
K1A6 111255Z AUTO 00000KT 10SM CLR M05/M06 A3015 RMK AO2 T10511060
K1A6 111235Z AUTO 00000KT 10SM CLR M05/M06 A3015 RMK AO2 T10531062
K1A6 111215Z AUTO 00000KT 10SM CLR M05/M06 A3015 RMK AO2 T10461056
K1A6 111155Z AUTO 00000KT 10SM CLR M05/M06 A3014 RMK AO2 T10491057 10026 21051
K1A6 111135Z AUTO 00000KT 10SM CLR M05/M06 A3014 RMK AO2 T10491061
K1A6 111115Z AUTO 00000KT 10SM CLR M05/M05 A3015 RMK AO2 T10461055
K1A6 111055Z AUTO 00000KT 10SM CLR M04/M05 A3014 RMK AO2 T10431054
K1A6 111035Z AUTO 00000KT 10SM CLR M04/M05 A3014 RMK AO2 T10441053
K1A6 111015Z AUTO 00000KT 10SM CLR M04/M06 A3015 RMK AO2 T10411058
K1A6 110955Z AUTO 00000KT 10SM CLR M04/M05 A3015 RMK AO2 T10401055
K1A6 110935Z AUTO 00000KT 10SM CLR M03/M05 A3015 RMK AO2 T10341053
K1A6 110915Z AUTO 00000KT 10SM CLR M04/M06 A3016 RMK AO2 T10371056
K1A6 110855Z AUTO 00000KT 10SM CLR M03/M05 A3016 RMK AO2 T10351052
K1A6 110835Z AUTO 00000KT 10SM CLR M03/M05 A3016 RMK AO2 T10321053
K1A6 110815Z AUTO 00000KT 10SM CLR M03/M05 A3016 RMK AO2 T10311054
K1A6 110755Z AUTO 00000KT 10SM CLR M03/M05 A3016 RMK AO2 T10261051
K1A6 110735Z AUTO 00000KT 10SM CLR M03/M05 A3016 RMK AO2 T10271052
K1A6 110715Z AUTO 00000KT 10SM CLR M02/M05 A3015 RMK AO2 T10181055
K1A6 110655Z AUTO 00000KT 10SM CLR M01/M05 A3015 RMK AO2 T10071052
K1A6 110635Z AUTO 22005KT 10SM CLR 01/M05 A3015 RMK AO2 T00121055
K1A6 110615Z AUTO 20004KT 10SM CLR 03/M06 A3015 RMK AO2 T00251057
K1A6 110555Z AUTO 19006KT 10SM CLR 03/M06 A3016 RMK AO2 T00261057 10030 21022 400511050
K1A6 110535Z AUTO 19007KT 10SM CLR 03/M06 A3017 RMK AO2 T00251057
K1A6 110515Z AUTO 18007KT 10SM CLR 03/M06 A3017 RMK AO2 T00251056
K1A6 110455Z AUTO 18006KT 10SM CLR 03/M06 A3016 RMK AO2 T00251056
K1A6 110435Z AUTO 18005KT 10SM CLR 02/M06 A3017 RMK AO2 T00231057
K1A6 110415Z AUTO 16006KT 10SM CLR 03/M06 A3017 RMK AO2 T00261060